Time;durP1;ratioP1;P1;durP2;ratioP2;P2;SDS_P1;SDS_P2;PMS_P1;PMS_P2;Temp;Humidity;BMP_temperature;BMP_pressure;BME280_temperature;BME280_humidity;BME280_pressure;Samples;Min_cycle;Max_cycle;Signal;HPM_P1;HPM_P2
2022/09/06 00:00:29;;;;;;;6.18;2.80;;;;;;;20.30;77.19;101698.09;4994384;28;20751;-77
2022/09/06 00:02:58;;;;;;;2.90;2.53;;;;;;;20.29;77.43;101695.47;5018289;28;20414;-78
2022/09/06 00:05:30;;;;;;;7.28;3.10;;;;;;;20.27;77.51;101708.03;5008865;28;20389;-78
2022/09/06 00:08:04;;;;;;;4.43;2.70;;;;;;;20.22;77.35;101705.44;5011766;28;20061;-78
2022/09/06 00:10:32;;;;;;;6.93;2.72;;;;;;;20.18;77.82;101704.63;5027785;28;20052;-77
2022/09/06 00:13:06;;;;;;;5.25;2.95;;;;;;;20.15;77.71;101702.03;5008768;28;20033;-77
2022/09/06 00:15:35;;;;;;;9.88;2.78;;;;;;;20.12;77.82;101699.44;4975860;28;20519;-77
2022/09/06 00:18:05;;;;;;;5.70;3.40;;;;;;;20.10;78.12;101697.72;4992959;28;20044;-78
2022/09/06 00:20:40;;;;;;;3.33;2.70;;;;;;;20.07;78.08;101701.31;5006119;28;20053;-78
2022/09/06 00:23:08;;;;;;;4.68;2.63;;;;;;;20.03;78.54;101700.50;5000246;28;20068;-78
2022/09/06 00:25:37;;;;;;;5.80;2.85;;;;;;;20.02;78.54;101708.59;5027820;28;20049;-78
2022/09/06 00:28:05;;;;;;;4.20;2.88;;;;;;;19.99;78.71;101708.66;5015548;28;20040;-77
2022/09/06 00:30:34;;;;;;;6.10;3.00;;;;;;;19.96;78.78;101688.22;5028105;28;20049;-77
2022/09/06 00:33:02;;;;;;;5.22;2.83;;;;;;;19.94;79.09;101686.47;4955837;28;20033;-77
2022/09/06 00:35:30;;;;;;;4.70;2.65;;;;;;;19.92;79.45;101682.94;5010805;28;20071;-77
2022/09/06 00:38:01;;;;;;;7.63;3.03;;;;;;;19.90;79.36;101692.81;5022646;28;20114;-78
2022/09/06 00:40:32;;;;;;;4.78;2.97;;;;;;;19.85;79.12;101691.13;5000677;28;20518;-77
2022/09/06 00:43:02;;;;;;;3.50;3.20;;;;;;;19.84;79.39;101692.00;5025756;28;20072;-79
2022/09/06 00:45:31;;;;;;;6.22;3.00;;;;;;;19.83;79.63;101695.63;5026151;28;20279;-78
2022/09/06 00:48:01;;;;;;;5.30;2.80;;;;;;;19.78;79.40;101684.13;4941196;28;20069;-79
2022/09/06 00:50:29;;;;;;;3.13;2.83;;;;;;;19.75;79.72;101689.53;5000615;28;20358;-77
2022/09/06 00:52:58;;;;;;;6.57;3.00;;;;;;;19.74;79.91;101686.91;4994420;28;20529;-78
2022/09/06 00:55:27;;;;;;;3.97;2.60;;;;;;;19.71;79.87;101693.16;5006153;28;20049;-77
2022/09/06 00:57:55;;;;;;;6.30;3.00;;;;;;;19.71;80.05;101693.16;5007597;28;20033;-77
2022/09/06 01:00:24;;;;;;;6.22;3.20;;;;;;;19.69;80.37;101692.31;5013747;28;20159;-77
2022/09/06 01:02:53;;;;;;;6.13;2.92;;;;;;;19.66;80.51;101695.94;4972512;28;20045;-78
2022/09/06 01:05:31;;;;;;;6.80;3.10;;;;;;;19.65;80.61;101695.97;5004700;28;20272;-77
2022/09/06 01:08:32;;;;;;;5.32;3.03;;;;;;;19.59;80.71;101688.09;5040066;28;20110;-78
2022/09/06 01:11:38;;;;;;;4.00;2.90;;;;;;;19.55;80.78;101681.06;5021102;28;20414;-78
2022/09/06 01:14:33;;;;;;;6.57;3.45;;;;;;;19.51;80.95;101685.59;5029506;28;20049;-78
2022/09/06 01:17:29;;;;;;;3.72;3.30;;;;;;;19.48;81.10;101686.50;4980284;28;20053;-78
2022/09/06 01:20:34;;;;;;;5.10;3.67;;;;;;;19.46;80.98;101677.63;4989974;28;20060;-78
2022/09/06 01:23:28;;;;;;;4.25;3.78;;;;;;;19.43;81.39;101679.50;5033709;28;20069;-79
2022/09/06 01:26:03;;;;;;;4.03;3.25;;;;;;;19.40;81.45;101687.59;5023580;28;20049;-78
2022/09/06 01:28:36;;;;;;;5.53;3.40;;;;;;;19.39;81.68;101686.69;5007846;28;20069;-77
2022/09/06 01:31:37;;;;;;;7.75;3.95;;;;;;;19.37;82.07;101672.47;4994744;28;20033;-77
2022/09/06 01:34:06;;;;;;;8.25;4.15;;;;;;;19.36;82.13;101673.41;5004682;28;20053;-77
2022/09/06 01:36:41;;;;;;;3.78;3.42;;;;;;;19.35;81.71;101673.44;4989287;28;20044;-78
2022/09/06 01:39:32;;;;;;;4.13;3.47;;;;;;;19.34;81.85;101672.56;5034297;28;20041;-79
2022/09/06 01:42:16;;;;;;;7.85;3.95;;;;;;;19.31;81.92;101669.06;5036864;28;20399;-78
2022/09/06 01:45:07;;;;;;;6.30;3.63;;;;;;;19.28;82.30;101668.22;5025941;28;20037;-78
2022/09/06 01:47:41;;;;;;;8.40;3.72;;;;;;;19.25;82.44;101660.25;4991232;28;20053;-77
2022/09/06 01:50:27;;;;;;;3.53;3.20;;;;;;;19.25;82.76;101664.72;4998707;28;20041;-77
2022/09/06 01:53:20;;;;;;;4.18;3.67;;;;;;;19.23;82.83;101656.72;5025678;28;20045;-78
2022/09/06 01:56:02;;;;;;;8.13;3.65;;;;;;;19.22;83.04;101662.09;5006526;28;20052;-76
2022/09/06 01:58:57;;;;;;;5.72;3.70;;;;;;;19.19;83.38;101660.38;5004858;28;20052;-76
2022/09/06 02:01:43;;;;;;;9.35;3.78;;;;;;;19.17;83.32;101659.53;4993891;28;20041;-78
2022/09/06 02:04:28;;;;;;;5.03;3.65;;;;;;;19.14;83.41;101656.91;4993405;28;20386;-78
2022/09/06 02:07:01;;;;;;;5.57;3.90;;;;;;;19.13;83.82;101665.84;4995722;28;20064;-78
2022/09/06 02:09:42;;;;;;;8.48;4.95;;;;;;;19.12;83.60;101665.88;5015512;28;20045;-78
2022/09/06 02:12:12;;;;;;;4.45;3.85;;;;;;;19.11;83.74;101665.00;5021923;28;20053;-77
2022/09/06 02:14:48;;;;;;;;;;;;;;;19.07;84.30;101672.19;5015523;28;20048;-77
2022/09/06 02:17:22;;;;;;;8.13;4.32;;;;;;;19.05;83.81;101674.03;5011932;28;20151;-78
2022/09/06 02:19:50;;;;;;;8.45;4.50;;;;;;;19.04;84.20;101664.22;5014919;28;20040;-78
2022/09/06 02:22:23;;;;;;;5.65;4.50;;;;;;;19.03;84.05;101661.56;4958376;28;20253;-77
2022/09/06 02:24:53;;;;;;;8.13;4.30;;;;;;;19.03;83.95;101662.44;5034650;28;20045;-78
2022/09/06 02:27:22;;;;;;;5.10;4.60;;;;;;;19.01;84.49;101663.41;5016812;28;20434;-78
2022/09/06 02:29:51;;;;;;;7.97;4.57;;;;;;;19.01;84.62;101664.28;4988460;28;20396;-77
2022/09/06 02:32:24;;;;;;;5.55;4.10;;;;;;;18.99;84.64;101660.75;5029442;28;20061;-78
2022/09/06 02:34:55;;;;;;;4.10;3.80;;;;;;;18.99;85.27;101655.41;5016532;28;20037;-78
2022/09/06 02:37:26;;;;;;;6.97;4.70;;;;;;;18.99;85.07;101652.75;4971522;28;20286;-78
2022/09/06 02:39:54;;;;;;;6.00;4.57;;;;;;;18.99;85.56;101660.75;5005416;28;20050;-78
2022/09/06 02:42:24;;;;;;;7.78;4.20;;;;;;;18.97;85.70;101645.69;4991953;28;20265;-77
2022/09/06 02:44:52;;;;;;;6.72;4.75;;;;;;;18.96;85.62;101658.16;5025925;28;20498;-78
2022/09/06 02:47:21;;;;;;;4.75;4.32;;;;;;;18.96;85.73;101652.81;5003545;28;20068;-78
2022/09/06 02:49:49;;;;;;;5.57;4.93;;;;;;;18.95;86.07;101651.03;5024186;28;20045;-77
2022/09/06 02:52:19;;;;;;;5.18;4.68;;;;;;;18.94;86.47;101646.63;4968979;28;20370;-76
2022/09/06 02:54:47;;;;;;;4.85;4.45;;;;;;;18.93;86.31;101638.63;5023455;28;20057;-79
2022/09/06 02:57:16;;;;;;;6.68;4.72;;;;;;;18.91;86.82;101644.00;5002082;28;20037;-77
2022/09/06 02:59:45;;;;;;;6.95;4.57;;;;;;;18.90;86.89;101652.91;5010713;28;20038;-78
2022/09/06 03:02:14;;;;;;;5.00;4.50;;;;;;;18.89;87.15;101643.16;5018905;28;20155;-79
2022/09/06 03:04:43;;;;;;;5.80;5.00;;;;;;;18.86;87.44;101638.72;5023841;28;20056;-77
2022/09/06 03:07:11;;;;;;;4.68;4.32;;;;;;;18.84;87.24;101637.00;4960108;28;20049;-77
2022/09/06 03:09:40;;;;;;;9.38;5.32;;;;;;;18.83;87.69;101641.47;5006526;28;20053;-77
2022/09/06 03:12:08;;;;;;;7.07;5.68;;;;;;;18.83;87.84;101635.25;5010034;28;20029;-80
2022/09/06 03:14:37;;;;;;;6.30;4.60;;;;;;;18.82;87.62;101626.34;5010489;28;20053;-77
2022/09/06 03:17:12;;;;;;;7.25;5.45;;;;;;;18.81;87.79;101627.28;5003786;28;20045;-77
2022/09/06 03:19:40;;;;;;;5.25;4.75;;;;;;;18.81;87.93;101624.59;5005178;28;20048;-79
2022/09/06 03:22:09;;;;;;;5.15;4.75;;;;;;;18.79;88.01;101633.50;4976684;28;20042;-78
2022/09/06 03:24:37;;;;;;;5.53;5.03;;;;;;;18.77;88.08;101632.66;5026564;28;20052;-77
2022/09/06 03:27:06;;;;;;;6.20;5.43;;;;;;;18.76;88.49;101625.56;5032648;28;20060;-77
2022/09/06 03:29:34;;;;;;;7.60;5.47;;;;;;;18.74;88.54;101622.91;5025944;28;20053;-77
2022/09/06 03:32:03;;;;;;;5.88;5.35;;;;;;;18.72;88.93;101618.53;5008347;28;20053;-77
2022/09/06 03:34:31;;;;;;;8.55;5.25;;;;;;;18.70;89.29;101619.44;5007525;28;20159;-76
2022/09/06 03:37:00;;;;;;;8.55;5.65;;;;;;;18.70;88.77;101616.75;4982287;28;20033;-77
2022/09/06 03:39:28;;;;;;;6.38;5.10;;;;;;;18.67;89.05;101615.94;4989333;28;20046;-78
2022/09/06 03:41:58;;;;;;;6.45;5.18;;;;;;;18.66;89.16;101620.41;5011146;28;20056;-78
2022/09/06 03:44:27;;;;;;;7.80;5.38;;;;;;;18.64;89.26;101616.88;5012544;28;20165;-77
2022/09/06 03:46:55;;;;;;;7.43;5.47;;;;;;;18.63;89.47;101612.44;5014749;28;20049;-79
2022/09/06 03:49:23;;;;;;;6.20;5.68;;;;;;;18.61;89.83;101616.06;5016489;28;20462;-77
2022/09/06 03:51:52;;;;;;;11.43;6.18;;;;;;;18.58;90.05;101622.34;5011058;28;20502;-79
2022/09/06 03:54:20;;;;;;;6.68;5.57;;;;;;;18.56;90.07;101607.22;4967779;28;20235;-77
2022/09/06 03:56:49;;;;;;;8.27;5.20;;;;;;;18.55;89.88;101611.69;5027145;28;20041;-79
2022/09/06 03:59:17;;;;;;;7.38;5.20;;;;;;;18.56;89.96;101616.13;5005344;28;20037;-78
2022/09/06 04:01:48;;;;;;;6.75;6.18;;;;;;;18.53;90.29;101609.97;4978925;28;20033;-77
2022/09/06 04:04:17;;;;;;;9.15;5.78;;;;;;;18.52;90.52;101617.09;4996612;28;20054;-78
2022/09/06 04:06:45;;;;;;;12.70;5.72;;;;;;;18.51;90.74;101621.53;4994104;28;20045;-77
2022/09/06 04:09:14;;;;;;;7.68;5.53;;;;;;;18.51;91.26;101618.00;4989939;28;20064;-78
2022/09/06 04:11:42;;;;;;;5.72;5.22;;;;;;;18.51;91.29;101623.34;5020444;28;20061;-78
2022/09/06 04:14:12;;;;;;;8.13;5.68;;;;;;;18.49;90.97;101614.47;5012939;28;20052;-78
2022/09/06 04:16:40;;;;;;;7.50;6.32;;;;;;;18.49;91.34;101617.16;5025832;28;20049;-77
2022/09/06 04:19:09;;;;;;;5.65;5.15;;;;;;;18.48;91.51;101618.03;5029141;28;20048;-78
2022/09/06 04:21:37;;;;;;;6.10;5.50;;;;;;;18.46;91.96;101612.72;5035674;28;20050;-77
2022/09/06 04:24:06;;;;;;;8.88;5.88;;;;;;;18.45;91.89;101620.75;4960873;28;20402;-77
2022/09/06 04:26:34;;;;;;;7.85;6.95;;;;;;;18.44;92.21;101621.69;5013981;28;20052;-78
2022/09/06 04:29:02;;;;;;;5.60;5.13;;;;;;;18.43;92.40;101627.91;5016168;28;20064;-78
2022/09/06 04:31:31;;;;;;;6.07;5.50;;;;;;;18.44;92.54;101627.03;5016733;28;20333;-77
2022/09/06 04:33:59;;;;;;;5.60;5.10;;;;;;;18.43;92.36;101633.25;5024753;28;20041;-77
2022/09/06 04:36:28;;;;;;;6.53;5.20;;;;;;;18.40;92.86;101630.66;5010756;28;20056;-78
2022/09/06 04:38:57;;;;;;;9.88;5.65;;;;;;;18.39;92.81;101634.22;4973941;28;20050;-77
2022/09/06 04:41:25;;;;;;;6.97;5.95;;;;;;;18.38;93.41;101632.47;5000175;28;20041;-78
2022/09/06 04:43:53;;;;;;;6.63;6.00;;;;;;;18.37;93.19;101639.56;5006324;28;20046;-78
2022/09/06 04:46:25;;;;;;;9.50;5.82;;;;;;;18.36;93.56;101643.16;5009999;28;20049;-78
2022/09/06 04:48:55;;;;;;;9.43;5.97;;;;;;;18.35;93.66;101643.19;5012849;28;20045;-77
2022/09/06 04:51:24;;;;;;;6.25;5.65;;;;;;;18.35;93.40;101635.19;5017078;28;20052;-78
2022/09/06 04:53:53;;;;;;;7.88;5.70;;;;;;;18.33;93.52;101635.19;5031507;28;20166;-78
2022/09/06 04:56:23;;;;;;;7.68;5.43;;;;;;;18.31;93.84;101631.66;4957757;28;20045;-79
2022/09/06 04:58:54;;;;;;;6.25;5.38;;;;;;;18.31;94.36;101635.22;4999815;28;20037;-77
2022/09/06 05:01:24;;;;;;;10.60;6.30;;;;;;;18.33;94.25;101632.53;5010887;28;20053;-78
2022/09/06 05:03:53;;;;;;;7.78;6.22;;;;;;;18.31;94.72;101629.88;4987871;28;20068;-77
2022/09/06 05:06:24;;;;;;;7.78;6.03;;;;;;;18.30;94.71;101636.13;5012206;28;20049;-77
2022/09/06 05:08:53;;;;;;;11.38;6.63;;;;;;;18.30;94.51;101636.13;5008490;28;20159;-77
2022/09/06 05:11:21;;;;;;;7.00;6.32;;;;;;;18.29;94.84;101634.34;4966503;28;20044;-78
2022/09/06 05:13:50;;;;;;;10.30;6.07;;;;;;;18.29;95.07;101642.38;5019085;28;20348;-77
2022/09/06 05:16:18;;;;;;;7.43;6.60;;;;;;;18.28;95.33;101639.75;4989879;28;20044;-78
2022/09/06 05:18:50;;;;;;;7.05;6.13;;;;;;;18.27;95.28;101645.97;5015252;28;20285;-77
2022/09/06 05:21:18;;;;;;;6.95;6.00;;;;;;;18.26;95.44;101649.53;5028455;28;20049;-78
2022/09/06 05:23:46;;;;;;;8.35;6.15;;;;;;;18.27;95.73;101654.84;4986729;28;20053;-77
2022/09/06 05:26:15;;;;;;;8.32;6.43;;;;;;;18.29;96.09;101653.03;4998453;28;20502;-78
2022/09/06 05:28:43;;;;;;;7.25;6.05;;;;;;;18.28;96.16;101650.41;5010474;28;20258;-77
2022/09/06 05:31:26;;;;;;;6.82;5.88;;;;;;;18.28;96.53;101653.09;4991731;28;20419;-77
2022/09/06 05:33:56;;;;;;;13.30;6.50;;;;;;;18.27;97.98;101661.97;5021069;28;20068;-77
2022/09/06 05:36:26;;;;;;;7.20;6.20;;;;;;;18.25;98.28;101651.31;5022673;28;20041;-77
2022/09/06 05:38:55;;;;;;;10.13;6.82;;;;;;;18.21;98.49;101664.75;5015229;28;20058;-76
2022/09/06 05:41:28;;;;;;;7.75;6.30;;;;;;;18.17;99.43;101657.72;4976590;28;20517;-77
2022/09/06 05:43:56;;;;;;;8.68;6.90;;;;;;;18.15;99.73;101660.41;5019078;28;20045;-77
2022/09/06 05:46:25;;;;;;;9.02;6.95;;;;;;;18.14;100.00;101658.63;4993939;28;20045;-77
2022/09/06 05:48:59;;;;;;;8.63;7.78;;;;;;;18.12;100.00;101655.97;5025749;28;20486;-78
2022/09/06 05:51:30;;;;;;;10.65;8.20;;;;;;;18.11;100.00;101658.69;5004195;28;20057;-78
2022/09/06 05:53:58;;;;;;;7.75;7.13;;;;;;;18.11;100.00;101656.00;4981799;28;20052;-77
2022/09/06 05:56:27;;;;;;;11.38;7.13;;;;;;;18.08;100.00;101653.38;4975733;28;20052;-77
2022/09/06 05:58:56;;;;;;;7.35;6.68;;;;;;;18.07;100.00;101655.19;4984939;28;20274;-77
2022/09/06 06:01:26;;;;;;;8.75;7.20;;;;;;;18.06;100.00;101660.53;4973015;28;20056;-78
2022/09/06 06:04:01;;;;;;;10.38;7.68;;;;;;;18.07;100.00;101668.50;5002007;28;20140;-78
2022/09/06 06:06:33;;;;;;;8.55;7.25;;;;;;;18.11;100.00;101672.03;5021233;28;20041;-79
2022/09/06 06:09:02;;;;;;;10.23;7.80;;;;;;;18.13;100.00;101664.88;5014148;28;20048;-78
2022/09/06 06:11:31;;;;;;;10.45;7.18;;;;;;;18.12;100.00;101661.31;5013859;28;20636;-79
2022/09/06 06:13:59;;;;;;;7.10;6.40;;;;;;;18.10;100.00;101662.25;4969019;28;20481;-77
2022/09/06 06:16:28;;;;;;;8.30;7.40;;;;;;;18.07;100.00;101668.50;5022107;28;20045;-79
2022/09/06 06:18:57;;;;;;;8.23;7.43;;;;;;;18.03;100.00;101660.56;5023678;28;20033;-78
2022/09/06 06:21:28;;;;;;;11.07;7.15;;;;;;;17.98;100.00;101660.66;4991210;28;20049;-80
2022/09/06 06:23:59;;;;;;;9.15;6.80;;;;;;;17.98;100.00;101665.97;5016349;28;20266;-81
2022/09/06 06:26:33;;;;;;;7.93;7.13;;;;;;;17.99;100.00;101661.50;4998076;28;20045;-79
2022/09/06 06:29:04;;;;;;;8.80;7.47;;;;;;;17.97;100.00;101660.66;4980106;28;20048;-80
2022/09/06 06:31:33;;;;;;;7.72;7.10;;;;;;;17.91;100.00;101661.63;4998368;28;20052;-81
2022/09/06 06:34:02;;;;;;;9.55;8.55;;;;;;;17.86;100.00;101667.03;5012257;28;20056;-78
2022/09/06 06:36:35;;;;;;;9.10;8.18;;;;;;;17.81;100.00;101668.84;5004579;28;20045;-81
2022/09/06 06:39:07;;;;;;;11.32;7.82;;;;;;;17.80;100.00;101668.88;5000149;28;20527;-79
2022/09/06 06:41:36;;;;;;;8.40;7.60;;;;;;;17.76;100.00;101664.47;5004596;28;20084;-79
2022/09/06 06:44:22;;;;;;;8.70;7.90;;;;;;;17.76;100.00;101667.16;4977667;28;20030;-79
2022/09/06 06:46:50;;;;;;;10.13;8.57;;;;;;;17.76;100.00;101672.47;4959748;28;20049;-78
2022/09/06 06:49:19;;;;;;;9.18;8.38;;;;;;;17.76;100.00;101661.81;4995453;28;20050;-79
2022/09/06 06:51:47;;;;;;;10.63;8.60;;;;;;;17.77;100.00;101664.47;4976839;28;20241;-79
2022/09/06 06:54:16;;;;;;;9.80;8.68;;;;;;;17.80;100.00;101664.41;5010435;28;20499;-79
2022/09/06 06:56:44;;;;;;;9.98;8.93;;;;;;;17.87;100.00;101662.59;4980545;28;20049;-79
2022/09/06 06:59:14;;;;;;;9.48;7.72;;;;;;;17.95;100.00;101649.13;4973147;28;20046;-79
2022/09/06 07:01:43;;;;;;;9.10;8.18;;;;;;;18.03;100.00;101645.44;4967801;28;20159;-80
2022/09/06 07:04:13;;;;;;;9.40;8.27;;;;;;;18.14;100.00;101644.41;4982310;28;20402;-80
2022/09/06 07:06:49;;;;;;;9.07;7.80;;;;;;;18.23;100.00;101647.81;4978202;28;20261;-80
2022/09/06 07:09:38;;;;;;;12.25;8.13;;;;;;;18.29;100.00;101652.16;4985802;28;20046;-79
2022/09/06 07:12:26;;;;;;;9.65;8.43;;;;;;;18.36;100.00;101655.63;5001819;28;20050;-79
2022/09/06 07:14:55;;;;;;;9.82;8.93;;;;;;;18.39;100.00;101644.88;4938967;28;20045;-79
2022/09/06 07:17:23;;;;;;;11.45;9.98;;;;;;;18.46;100.00;101641.22;4961946;28;20046;-78
2022/09/06 07:19:52;;;;;;;14.43;11.82;;;;;;;18.48;100.00;101636.72;5000581;28;20239;-79
2022/09/06 07:22:40;;;;;;;13.02;11.73;;;;;;;18.50;100.00;101635.78;4969206;28;20678;-78
2022/09/06 07:25:11;;;;;;;15.95;12.63;;;;;;;18.53;100.00;101642.88;4974874;28;20045;-81
2022/09/06 07:27:44;;;;;;;14.20;11.82;;;;;;;18.55;100.00;101633.06;4987489;28;20257;-79
2022/09/06 07:30:18;;;;;;;13.95;11.68;;;;;;;18.57;100.00;101639.25;4983564;28;20050;-79
2022/09/06 07:32:47;;;;;;;16.20;11.75;;;;;;;18.59;100.00;101636.56;4964944;28;20041;-79
2022/09/06 07:35:19;;;;;;;12.52;11.35;;;;;;;18.61;100.00;101638.28;5008423;28;20479;-79
2022/09/06 07:37:58;;;;;;;12.55;11.27;;;;;;;18.62;100.00;101647.16;4964350;28;20065;-80
2022/09/06 07:40:29;;;;;;;14.77;11.30;;;;;;;18.64;100.00;101648.91;4996714;28;20061;-79
2022/09/06 07:42:58;;;;;;;11.35;10.35;;;;;;;18.67;100.00;101646.16;4999636;28;20411;-78
2022/09/06 07:45:27;;;;;;;14.93;9.77;;;;;;;18.70;100.00;101648.78;4967309;28;20050;-79
2022/09/06 07:47:59;;;;;;;12.25;9.95;;;;;;;18.76;100.00;101645.13;4989701;28;20042;-80
2022/09/06 07:50:29;;;;;;;10.43;9.32;;;;;;;18.82;100.00;101636.16;4936383;28;20096;-80
2022/09/06 07:53:19;;;;;;;12.60;10.15;;;;;;;18.92;100.00;101631.53;4981969;28;20353;-79
2022/09/06 07:56:00;;;;;;;10.73;9.63;;;;;;;19.01;100.00;101623.34;4993141;28;20026;-79
2022/09/06 07:58:28;;;;;;;;;;;;;;;19.16;100.00;101643.53;5004724;28;20500;-79
2022/09/06 08:01:17;;;;;;;9.80;8.80;;;;;;;19.37;100.00;101629.72;4972084;28;20029;-81
2022/09/06 08:03:46;;;;;;;10.15;9.15;;;;;;;19.54;100.00;101636.50;4959865;28;20057;-80
2022/09/06 08:06:15;;;;;;;10.80;9.07;;;;;;;19.79;100.00;101640.44;4955427;28;20041;-80
2022/09/06 08:08:44;;;;;;;9.90;8.90;;;;;;;20.02;100.00;101639.91;4979267;28;20574;-80
2022/09/06 08:11:31;;;;;;;10.02;9.18;;;;;;;20.35;100.00;101642.66;4989989;28;20401;-79
2022/09/06 08:14:02;;;;;;;8.63;7.82;;;;;;;20.56;100.00;101635.00;4988799;28;20046;-79
2022/09/06 08:16:33;;;;;;;8.50;7.60;;;;;;;20.67;100.00;101622.25;4971551;28;20053;-79
2022/09/06 08:19:07;;;;;;;11.93;8.20;;;;;;;20.62;100.00;101614.34;5015414;28;20427;-79
2022/09/06 08:21:36;;;;;;;10.10;8.65;;;;;;;20.59;99.31;101613.53;4966969;28;20065;-80
2022/09/06 08:24:06;;;;;;;12.93;9.20;;;;;;;20.75;99.71;101608.66;4968582;28;20072;-79
2022/09/06 08:26:41;;;;;;;10.40;9.50;;;;;;;20.87;98.79;101615.47;4980310;28;20268;-81
2022/09/06 08:29:12;;;;;;;10.70;9.63;;;;;;;20.92;97.94;101618.91;4964425;28;20069;-79
2022/09/06 08:31:42;;;;;;;15.30;9.93;;;;;;;20.95;97.14;101633.09;4971620;28;20058;-80
2022/09/06 08:34:13;;;;;;;11.10;9.98;;;;;;;20.89;96.26;101627.91;4964502;28;20490;-80
2022/09/06 08:36:42;;;;;;;11.10;9.73;;;;;;;20.81;95.68;101624.56;4966509;28;20622;-79
2022/09/06 08:39:12;;;;;;;12.07;9.73;;;;;;;20.88;95.80;101614.56;4984725;28;20078;-81
2022/09/06 08:42:05;;;;;;;11.35;9.15;;;;;;;21.08;95.71;101616.66;4983673;28;20042;-79
2022/09/06 08:44:42;;;;;;;8.68;7.80;;;;;;;21.36;95.35;101620.34;5002550;28;20690;-79
2022/09/06 08:47:26;;;;;;;11.52;7.63;;;;;;;21.55;93.99;101622.47;4969973;28;20038;-79
2022/09/06 08:50:05;;;;;;;8.27;7.20;;;;;;;21.61;92.63;101623.16;4996414;28;20482;-78
2022/09/06 08:53:15;;;;;;;8.23;7.53;;;;;;;21.50;91.39;101632.47;4982563;28;20702;-81
2022/09/06 08:55:58;;;;;;;8.85;7.35;;;;;;;21.25;91.24;101641.22;4997982;28;20690;-79
2022/09/06 08:58:45;;;;;;;9.75;7.50;;;;;;;21.05;91.57;101647.13;5006323;28;20412;-79
2022/09/06 09:01:24;;;;;;;13.98;8.52;;;;;;;20.87;91.75;101653.88;5008488;28;20399;-79
2022/09/06 09:03:56;;;;;;;8.82;7.88;;;;;;;20.68;92.29;101648.13;4963279;28;20050;-80
2022/09/06 09:06:26;;;;;;;8.73;7.85;;;;;;;20.46;92.70;101655.78;5012227;28;20042;-79
2022/09/06 09:09:05;;;;;;;8.65;7.60;;;;;;;20.48;94.17;101658.44;4992236;28;20042;-78
2022/09/06 09:11:37;;;;;;;10.13;7.93;;;;;;;20.57;94.97;101656.41;4994944;28;20554;-79
2022/09/06 09:14:23;;;;;;;9.35;7.28;;;;;;;20.70;93.65;101659.69;4987873;28;20049;-78
2022/09/06 09:16:53;;;;;;;9.07;6.88;;;;;;;20.69;93.29;101665.94;5009055;28;20547;-80
2022/09/06 09:19:22;;;;;;;8.60;7.80;;;;;;;20.67;93.53;101662.44;4958310;28;20534;-81
2022/09/06 09:21:50;;;;;;;8.90;8.10;;;;;;;20.76;93.43;101658.63;4996922;28;20262;-79
2022/09/06 09:24:19;;;;;;;9.20;8.23;;;;;;;20.87;93.49;101658.34;4965795;28;20045;-81
2022/09/06 09:26:56;;;;;;;8.63;7.82;;;;;;;20.98;92.99;101651.78;4961638;28;20042;-78
2022/09/06 09:29:24;;;;;;;8.13;7.43;;;;;;;21.13;93.77;101653.13;5011008;28;20045;-80
2022/09/06 09:31:58;;;;;;;13.15;7.55;;;;;;;21.28;92.99;101656.31;4989666;28;20133;-80
2022/09/06 09:34:38;;;;;;;9.68;6.97;;;;;;;21.35;92.24;101657.91;4945131;28;20061;-79
2022/09/06 09:37:11;;;;;;;12.45;7.82;;;;;;;21.17;93.03;101653.94;4993798;28;20049;-79
2022/09/06 09:40:05;;;;;;;7.30;6.60;;;;;;;21.10;93.98;101657.72;4975572;28;20053;-79
2022/09/06 09:42:36;;;;;;;10.10;8.27;;;;;;;21.09;93.49;101648.78;4979025;28;20423;-79
2022/09/06 09:45:19;;;;;;;11.98;8.45;;;;;;;21.06;93.93;101645.31;4981563;28;20038;-79
2022/09/06 09:47:48;;;;;;;8.63;7.57;;;;;;;21.12;93.92;101651.38;5001909;28;20029;-77
2022/09/06 09:50:32;;;;;;;9.48;7.07;;;;;;;21.23;94.34;101664.50;4965466;28;20038;-80
2022/09/06 09:53:11;;;;;;;9.02;7.28;;;;;;;21.28;94.13;101651.81;5009266;28;20041;-79
2022/09/06 09:55:41;;;;;;;8.35;7.60;;;;;;;21.32;93.51;101647.25;4971417;28;20710;-79
2022/09/06 09:58:42;;;;;;;8.65;6.82;;;;;;;21.28;92.42;101651.81;4985249;28;20045;-79
2022/09/06 10:01:17;;;;;;;7.95;7.13;;;;;;;21.27;91.96;101651.91;5000595;28;20050;-79
2022/09/06 10:03:46;;;;;;;10.15;6.85;;;;;;;21.25;91.81;101659.97;4996810;28;20133;-80
2022/09/06 10:06:36;;;;;;;8.07;7.33;;;;;;;21.28;91.23;101651.81;4975866;28;20045;-80
2022/09/06 10:09:38;;;;;;;11.30;7.30;;;;;;;21.38;91.05;101647.97;5000653;28;20061;-81
2022/09/06 10:12:07;;;;;;;7.78;7.07;;;;;;;21.47;90.27;101641.47;4994943;28;20072;-81
2022/09/06 10:14:41;;;;;;;11.93;7.88;;;;;;;21.47;89.78;101651.31;4974723;28;20416;-80
2022/09/06 10:17:42;;;;;;;10.20;7.35;;;;;;;21.46;89.15;101638.88;5013571;28;20535;-78
2022/09/06 10:20:11;;;;;;;8.35;6.43;;;;;;;21.53;88.72;101646.69;4953238;28;20058;-79
2022/09/06 10:22:46;;;;;;;7.80;6.60;;;;;;;21.61;88.29;101659.84;4958121;28;20543;-79
2022/09/06 10:25:46;;;;;;;6.82;6.22;;;;;;;21.70;87.51;101646.16;5003375;28;20372;-79
2022/09/06 10:28:35;;;;;;;8.07;7.20;;;;;;;21.62;85.11;101640.13;5015300;28;20051;-79
2022/09/06 10:31:22;;;;;;;10.95;6.65;;;;;;;21.55;86.48;101627.81;5009466;28;20049;-79
2022/09/06 10:34:01;;;;;;;;;;;;;;;21.54;85.97;101621.59;4970662;28;20046;-79
2022/09/06 10:36:37;;;;;;;7.90;7.15;;;;;;;21.66;87.04;101624.81;4934807;28;19921;-79
2022/09/06 10:39:38;;;;;;;8.32;6.78;;;;;;;21.74;85.76;101620.13;4993022;28;20054;-79
2022/09/06 10:42:33;;;;;;;10.05;6.30;;;;;;;21.82;85.61;101618.06;4985279;28;20434;-80
2022/09/06 10:45:08;;;;;;;8.88;5.95;;;;;;;21.95;85.89;101610.53;4998856;28;20499;-79
2022/09/06 10:47:55;;;;;;;8.98;6.70;;;;;;;22.10;84.70;101603.78;5024380;28;20045;-78
2022/09/06 10:50:37;;;;;;;10.02;6.90;;;;;;;22.19;84.56;101604.34;4990134;28;20033;-80
2022/09/06 10:53:30;;;;;;;10.00;6.88;;;;;;;22.12;84.85;101608.16;5025338;28;20053;-79
2022/09/06 10:56:07;;;;;;;12.07;7.40;;;;;;;22.17;84.52;101597.25;5009100;28;20044;-79
2022/09/06 10:58:47;;;;;;;10.45;6.63;;;;;;;22.27;84.82;101605.91;5016708;28;20163;-80
2022/09/06 11:01:52;;;;;;;6.88;6.18;;;;;;;22.43;84.22;101598.22;5014131;28;20523;-78
2022/09/06 11:04:28;;;;;;;11.45;7.75;;;;;;;22.48;83.43;101601.63;5011505;28;20049;-78
2022/09/06 11:07:10;;;;;;;6.95;6.30;;;;;;;22.50;83.14;101602.44;4982999;28;20048;-79
2022/09/06 11:10:02;;;;;;;8.52;7.38;;;;;;;22.54;83.20;101604.97;5018836;28;20037;-80
2022/09/06 11:13:03;;;;;;;7.03;5.97;;;;;;;22.63;83.51;101592.13;5000790;28;20045;-78
2022/09/06 11:15:41;;;;;;;6.87;6.27;;;;;;;22.76;83.45;101580.91;5005126;28;20049;-80
2022/09/06 11:18:28;;;;;;;11.05;6.72;;;;;;;22.87;81.38;101585.91;5014460;28;20041;-78
2022/09/06 11:21:34;;;;;;;11.20;6.15;;;;;;;22.96;83.84;101590.91;5031802;28;20057;-78
2022/09/06 11:24:12;;;;;;;8.18;5.90;;;;;;;23.08;80.05;101584.25;4977778;28;20044;-81
2022/09/06 11:27:18;;;;;;;11.60;7.57;;;;;;;22.97;81.02;101579.25;5024627;28;20042;-80
2022/09/06 11:29:55;;;;;;;7.70;6.88;;;;;;;23.03;81.34;101583.56;5003204;28;20049;-80
2022/09/06 11:32:36;;;;;;;16.58;7.43;;;;;;;23.07;80.54;101581.63;5000314;28;20033;-79
2022/09/06 11:35:09;;;;;;;8.65;7.30;;;;;;;23.08;80.33;101594.13;5029749;28;20041;-80
2022/09/06 11:37:43;;;;;;;8.57;6.15;;;;;;;23.07;80.88;101587.00;4999459;28;20705;-80
2022/09/06 11:40:24;;;;;;;11.52;6.70;;;;;;;23.22;80.53;101599.00;5025111;28;20049;-79
2022/09/06 11:42:58;;;;;;;14.38;7.07;;;;;;;23.27;80.42;101591.59;4984006;28;20534;-80
2022/09/06 11:45:44;;;;;;;12.02;6.93;;;;;;;23.35;79.71;101593.09;5000042;28;20045;-77
2022/09/06 11:48:33;;;;;;;7.32;6.63;;;;;;;23.45;79.66;101593.59;4993949;28;20038;-78
2022/09/06 11:51:11;;;;;;;10.75;7.95;;;;;;;23.58;79.34;101585.94;5015008;28;20053;-78
2022/09/06 11:53:49;;;;;;;7.90;7.07;;;;;;;23.65;79.31;101579.38;4970865;28;20038;-78
2022/09/06 11:56:27;;;;;;;11.23;6.82;;;;;;;23.66;78.43;101581.09;5026863;28;20061;-78